sensor_id;sensor_type;location;lat;lon;timestamp;P1;durP1;ratioP1;P2;durP2;ratioP2
57073;SDS011;69035;54.392;18.574;2023-04-25T00:01:04;8.27;;;4.90;;
57073;SDS011;69035;54.392;18.574;2023-04-25T00:03:33;8.85;;;5.03;;
57073;SDS011;69035;54.392;18.574;2023-04-25T00:08:32;7.20;;;4.13;;
57073;SDS011;69035;54.392;18.574;2023-04-25T00:11:01;7.55;;;4.00;;
57073;SDS011;69035;54.392;18.574;2023-04-25T00:13:29;8.75;;;4.55;;
57073;SDS011;69035;54.392;18.574;2023-04-25T00:15:59;8.68;;;4.50;;
57073;SDS011;69035;54.392;18.574;2023-04-25T00:18:27;8.60;;;4.63;;
57073;SDS011;69035;54.392;18.574;2023-04-25T00:20:56;8.30;;;4.30;;
57073;SDS011;69035;54.392;18.574;2023-04-25T00:23:25;7.30;;;4.38;;
57073;SDS011;69035;54.392;18.574;2023-04-25T00:25:56;7.25;;;4.18;;
57073;SDS011;69035;54.392;18.574;2023-04-25T00:28:25;7.72;;;4.68;;
57073;SDS011;69035;54.392;18.574;2023-04-25T00:30:54;8.40;;;4.82;;
57073;SDS011;69035;54.392;18.574;2023-04-25T00:33:22;7.22;;;4.15;;
57073;SDS011;69035;54.392;18.574;2023-04-25T00:35:51;8.02;;;4.30;;
57073;SDS011;69035;54.392;18.574;2023-04-25T00:38:20;9.93;;;4.90;;
57073;SDS011;69035;54.392;18.574;2023-04-25T00:43:21;8.40;;;4.85;;
57073;SDS011;69035;54.392;18.574;2023-04-25T00:45:49;7.63;;;4.63;;
57073;SDS011;69035;54.392;18.574;2023-04-25T00:48:21;7.53;;;4.28;;
57073;SDS011;69035;54.392;18.574;2023-04-25T00:50:51;8.57;;;4.45;;
57073;SDS011;69035;54.392;18.574;2023-04-25T00:53:21;7.82;;;4.65;;
57073;SDS011;69035;54.392;18.574;2023-04-25T00:55:51;8.95;;;4.60;;
57073;SDS011;69035;54.392;18.574;2023-04-25T00:58:22;7.57;;;4.73;;
57073;SDS011;69035;54.392;18.574;2023-04-25T01:00:51;7.70;;;4.75;;
57073;SDS011;69035;54.392;18.574;2023-04-25T01:03:20;8.30;;;4.72;;
57073;SDS011;69035;54.392;18.574;2023-04-25T01:05:51;8.35;;;4.20;;
57073;SDS011;69035;54.392;18.574;2023-04-25T01:08:20;7.55;;;4.57;;
57073;SDS011;69035;54.392;18.574;2023-04-25T01:10:51;8.70;;;4.90;;
57073;SDS011;69035;54.392;18.574;2023-04-25T01:13:22;8.07;;;5.20;;
57073;SDS011;69035;54.392;18.574;2023-04-25T01:15:52;8.55;;;5.03;;
57073;SDS011;69035;54.392;18.574;2023-04-25T01:18:20;8.23;;;4.68;;
57073;SDS011;69035;54.392;18.574;2023-04-25T01:20:50;10.48;;;4.90;;
57073;SDS011;69035;54.392;18.574;2023-04-25T01:23:22;7.47;;;4.55;;
57073;SDS011;69035;54.392;18.574;2023-04-25T01:25:52;8.13;;;4.90;;
57073;SDS011;69035;54.392;18.574;2023-04-25T01:28:21;10.88;;;5.82;;
57073;SDS011;69035;54.392;18.574;2023-04-25T01:30:51;9.75;;;5.35;;
57073;SDS011;69035;54.392;18.574;2023-04-25T01:33:21;7.72;;;4.68;;
57073;SDS011;69035;54.392;18.574;2023-04-25T01:35:50;9.30;;;4.90;;
57073;SDS011;69035;54.392;18.574;2023-04-25T01:38:19;8.57;;;5.25;;
57073;SDS011;69035;54.392;18.574;2023-04-25T01:40:50;8.52;;;5.55;;
57073;SDS011;69035;54.392;18.574;2023-04-25T01:43:21;7.70;;;4.82;;
57073;SDS011;69035;54.392;18.574;2023-04-25T01:45:50;8.60;;;4.93;;
57073;SDS011;69035;54.392;18.574;2023-04-25T01:48:19;9.37;;;4.37;;
57073;SDS011;69035;54.392;18.574;2023-04-25T01:50:48;8.38;;;4.80;;
57073;SDS011;69035;54.392;18.574;2023-04-25T01:53:17;7.13;;;4.70;;
57073;SDS011;69035;54.392;18.574;2023-04-25T01:55:47;8.27;;;4.85;;
57073;SDS011;69035;54.392;18.574;2023-04-25T01:58:18;9.75;;;5.50;;
57073;SDS011;69035;54.392;18.574;2023-04-25T02:01:07;9.20;;;5.38;;
57073;SDS011;69035;54.392;18.574;2023-04-25T02:03:43;8.05;;;5.35;;
57073;SDS011;69035;54.392;18.574;2023-04-25T02:06:27;8.80;;;5.43;;
57073;SDS011;69035;54.392;18.574;2023-04-25T02:08:56;8.43;;;5.28;;
57073;SDS011;69035;54.392;18.574;2023-04-25T02:11:27;9.20;;;5.22;;
57073;SDS011;69035;54.392;18.574;2023-04-25T02:14:16;9.32;;;5.75;;
57073;SDS011;69035;54.392;18.574;2023-04-25T02:16:54;8.65;;;5.60;;
57073;SDS011;69035;54.392;18.574;2023-04-25T02:19:24;8.65;;;5.15;;
57073;SDS011;69035;54.392;18.574;2023-04-25T02:21:52;11.13;;;6.15;;
57073;SDS011;69035;54.392;18.574;2023-04-25T02:24:21;10.73;;;5.95;;
57073;SDS011;69035;54.392;18.574;2023-04-25T02:26:52;8.88;;;5.95;;
57073;SDS011;69035;54.392;18.574;2023-04-25T02:29:22;11.40;;;6.32;;
57073;SDS011;69035;54.392;18.574;2023-04-25T02:31:51;12.18;;;6.10;;
57073;SDS011;69035;54.392;18.574;2023-04-25T02:34:21;11.10;;;6.07;;
57073;SDS011;69035;54.392;18.574;2023-04-25T02:36:50;10.07;;;6.40;;
57073;SDS011;69035;54.392;18.574;2023-04-25T02:39:18;10.63;;;6.38;;
57073;SDS011;69035;54.392;18.574;2023-04-25T02:41:49;10.45;;;6.65;;
57073;SDS011;69035;54.392;18.574;2023-04-25T02:44:19;10.55;;;6.43;;
57073;SDS011;69035;54.392;18.574;2023-04-25T02:46:47;9.57;;;6.03;;
57073;SDS011;69035;54.392;18.574;2023-04-25T02:49:16;10.68;;;5.95;;
57073;SDS011;69035;54.392;18.574;2023-04-25T02:51:45;9.75;;;6.22;;
57073;SDS011;69035;54.392;18.574;2023-04-25T02:54:13;10.20;;;5.85;;
57073;SDS011;69035;54.392;18.574;2023-04-25T02:56:46;10.27;;;6.63;;
57073;SDS011;69035;54.392;18.574;2023-04-25T02:59:23;9.27;;;6.30;;
57073;SDS011;69035;54.392;18.574;2023-04-25T03:01:52;11.25;;;6.57;;
57073;SDS011;69035;54.392;18.574;2023-04-25T03:04:21;10.32;;;6.43;;
57073;SDS011;69035;54.392;18.574;2023-04-25T03:06:51;9.93;;;6.25;;
57073;SDS011;69035;54.392;18.574;2023-04-25T03:09:20;10.73;;;6.63;;
57073;SDS011;69035;54.392;18.574;2023-04-25T03:11:51;9.73;;;6.05;;
57073;SDS011;69035;54.392;18.574;2023-04-25T03:14:24;13.77;;;6.80;;
57073;SDS011;69035;54.392;18.574;2023-04-25T03:16:54;9.30;;;6.30;;
57073;SDS011;69035;54.392;18.574;2023-04-25T03:19:23;9.27;;;6.13;;
57073;SDS011;69035;54.392;18.574;2023-04-25T03:21:51;9.52;;;6.35;;
57073;SDS011;69035;54.392;18.574;2023-04-25T03:24:21;10.60;;;6.40;;
57073;SDS011;69035;54.392;18.574;2023-04-25T03:26:49;10.10;;;7.13;;
57073;SDS011;69035;54.392;18.574;2023-04-25T03:29:18;9.18;;;6.53;;
57073;SDS011;69035;54.392;18.574;2023-04-25T03:31:53;10.57;;;7.22;;
57073;SDS011;69035;54.392;18.574;2023-04-25T03:34:22;11.02;;;6.97;;
57073;SDS011;69035;54.392;18.574;2023-04-25T03:36:51;11.02;;;7.22;;
57073;SDS011;69035;54.392;18.574;2023-04-25T03:39:20;11.32;;;7.50;;
57073;SDS011;69035;54.392;18.574;2023-04-25T03:41:51;12.52;;;7.20;;
57073;SDS011;69035;54.392;18.574;2023-04-25T03:44:20;10.30;;;6.50;;
57073;SDS011;69035;54.392;18.574;2023-04-25T03:46:53;11.02;;;6.55;;
57073;SDS011;69035;54.392;18.574;2023-04-25T03:49:22;10.18;;;6.30;;
57073;SDS011;69035;54.392;18.574;2023-04-25T03:51:58;10.32;;;6.60;;
57073;SDS011;69035;54.392;18.574;2023-04-25T03:54:30;14.45;;;6.78;;
57073;SDS011;69035;54.392;18.574;2023-04-25T03:57:05;10.52;;;6.78;;
57073;SDS011;69035;54.392;18.574;2023-04-25T03:59:37;10.68;;;6.38;;
57073;SDS011;69035;54.392;18.574;2023-04-25T04:02:11;9.52;;;6.43;;
57073;SDS011;69035;54.392;18.574;2023-04-25T04:04:40;9.70;;;6.28;;
57073;SDS011;69035;54.392;18.574;2023-04-25T04:07:12;10.27;;;5.97;;
57073;SDS011;69035;54.392;18.574;2023-04-25T04:09:43;8.73;;;5.57;;
57073;SDS011;69035;54.392;18.574;2023-04-25T04:12:18;11.02;;;5.13;;
57073;SDS011;69035;54.392;18.574;2023-04-25T04:14:46;9.57;;;5.47;;
57073;SDS011;69035;54.392;18.574;2023-04-25T04:17:16;9.30;;;5.57;;
57073;SDS011;69035;54.392;18.574;2023-04-25T04:19:45;8.85;;;5.57;;
57073;SDS011;69035;54.392;18.574;2023-04-25T04:22:18;8.95;;;5.43;;
57073;SDS011;69035;54.392;18.574;2023-04-25T04:24:47;8.93;;;5.40;;
57073;SDS011;69035;54.392;18.574;2023-04-25T04:27:28;9.73;;;5.00;;
57073;SDS011;69035;54.392;18.574;2023-04-25T04:30:15;9.13;;;5.22;;
57073;SDS011;69035;54.392;18.574;2023-04-25T04:32:57;9.25;;;5.45;;
57073;SDS011;69035;54.392;18.574;2023-04-25T04:35:28;9.80;;;5.45;;
57073;SDS011;69035;54.392;18.574;2023-04-25T04:38:05;8.50;;;4.78;;
57073;SDS011;69035;54.392;18.574;2023-04-25T04:40:35;9.85;;;4.93;;
57073;SDS011;69035;54.392;18.574;2023-04-25T04:43:33;10.07;;;5.40;;
57073;SDS011;69035;54.392;18.574;2023-04-25T04:46:13;9.02;;;4.95;;
57073;SDS011;69035;54.392;18.574;2023-04-25T04:49:07;8.60;;;4.85;;
57073;SDS011;69035;54.392;18.574;2023-04-25T04:51:55;8.98;;;5.03;;
57073;SDS011;69035;54.392;18.574;2023-04-25T04:54:46;7.60;;;4.45;;
57073;SDS011;69035;54.392;18.574;2023-04-25T04:57:33;9.38;;;5.35;;
57073;SDS011;69035;54.392;18.574;2023-04-25T05:00:29;9.48;;;5.03;;
57073;SDS011;69035;54.392;18.574;2023-04-25T05:03:31;10.07;;;5.75;;
57073;SDS011;69035;54.392;18.574;2023-04-25T05:06:02;10.27;;;5.75;;
57073;SDS011;69035;54.392;18.574;2023-04-25T05:09:07;9.98;;;5.15;;
57073;SDS011;69035;54.392;18.574;2023-04-25T05:12:00;9.48;;;5.45;;
57073;SDS011;69035;54.392;18.574;2023-04-25T05:14:47;9.55;;;5.15;;
57073;SDS011;69035;54.392;18.574;2023-04-25T05:17:51;10.27;;;5.75;;
57073;SDS011;69035;54.392;18.574;2023-04-25T05:20:20;9.98;;;5.78;;
57073;SDS011;69035;54.392;18.574;2023-04-25T05:23:09;8.80;;;5.15;;
57073;SDS011;69035;54.392;18.574;2023-04-25T05:25:52;9.20;;;5.28;;
57073;SDS011;69035;54.392;18.574;2023-04-25T05:28:53;10.02;;;5.05;;
57073;SDS011;69035;54.392;18.574;2023-04-25T05:31:44;11.32;;;6.07;;
57073;SDS011;69035;54.392;18.574;2023-04-25T05:34:15;8.63;;;4.70;;
57073;SDS011;69035;54.392;18.574;2023-04-25T05:36:51;10.65;;;5.43;;
57073;SDS011;69035;54.392;18.574;2023-04-25T05:39:21;9.38;;;5.63;;
57073;SDS011;69035;54.392;18.574;2023-04-25T05:42:16;8.63;;;4.57;;
57073;SDS011;69035;54.392;18.574;2023-04-25T05:44:45;9.07;;;5.38;;
57073;SDS011;69035;54.392;18.574;2023-04-25T05:47:36;8.55;;;4.85;;
57073;SDS011;69035;54.392;18.574;2023-04-25T05:50:11;9.20;;;5.00;;
57073;SDS011;69035;54.392;18.574;2023-04-25T05:52:50;11.23;;;6.20;;
57073;SDS011;69035;54.392;18.574;2023-04-25T05:55:41;9.15;;;4.82;;
57073;SDS011;69035;54.392;18.574;2023-04-25T05:58:21;9.27;;;5.32;;
57073;SDS011;69035;54.392;18.574;2023-04-25T06:00:53;8.73;;;4.70;;
57073;SDS011;69035;54.392;18.574;2023-04-25T06:03:22;7.90;;;4.63;;
57073;SDS011;69035;54.392;18.574;2023-04-25T06:05:52;8.43;;;4.57;;
57073;SDS011;69035;54.392;18.574;2023-04-25T06:08:21;8.98;;;4.78;;
57073;SDS011;69035;54.392;18.574;2023-04-25T06:10:52;8.20;;;4.57;;
57073;SDS011;69035;54.392;18.574;2023-04-25T06:13:22;7.07;;;3.75;;
57073;SDS011;69035;54.392;18.574;2023-04-25T06:15:51;7.50;;;3.60;;
57073;SDS011;69035;54.392;18.574;2023-04-25T06:18:19;7.90;;;4.22;;
57073;SDS011;69035;54.392;18.574;2023-04-25T06:20:49;6.70;;;3.53;;
57073;SDS011;69035;54.392;18.574;2023-04-25T06:23:18;9.25;;;3.95;;
57073;SDS011;69035;54.392;18.574;2023-04-25T06:25:54;9.07;;;3.60;;
57073;SDS011;69035;54.392;18.574;2023-04-25T06:28:24;8.18;;;3.97;;
57073;SDS011;69035;54.392;18.574;2023-04-25T06:30:53;8.30;;;3.90;;
57073;SDS011;69035;54.392;18.574;2023-04-25T06:33:21;8.40;;;4.28;;
57073;SDS011;69035;54.392;18.574;2023-04-25T06:35:53;9.57;;;5.03;;
57073;SDS011;69035;54.392;18.574;2023-04-25T06:38:25;7.85;;;3.80;;
57073;SDS011;69035;54.392;18.574;2023-04-25T06:40:57;9.05;;;3.88;;
57073;SDS011;69035;54.392;18.574;2023-04-25T06:43:29;8.20;;;4.13;;
57073;SDS011;69035;54.392;18.574;2023-04-25T06:46:23;7.45;;;4.03;;
57073;SDS011;69035;54.392;18.574;2023-04-25T06:48:53;7.38;;;4.20;;
57073;SDS011;69035;54.392;18.574;2023-04-25T06:51:22;8.15;;;4.22;;
57073;SDS011;69035;54.392;18.574;2023-04-25T06:53:55;8.80;;;5.03;;
57073;SDS011;69035;54.392;18.574;2023-04-25T06:56:31;8.70;;;3.70;;
57073;SDS011;69035;54.392;18.574;2023-04-25T06:59:20;8.40;;;4.18;;
57073;SDS011;69035;54.392;18.574;2023-04-25T07:01:50;8.13;;;3.78;;
57073;SDS011;69035;54.392;18.574;2023-04-25T07:04:24;7.18;;;3.50;;
57073;SDS011;69035;54.392;18.574;2023-04-25T07:06:56;8.00;;;3.58;;
57073;SDS011;69035;54.392;18.574;2023-04-25T07:09:47;6.20;;;3.33;;
57073;SDS011;69035;54.392;18.574;2023-04-25T07:12:18;6.88;;;3.50;;
57073;SDS011;69035;54.392;18.574;2023-04-25T07:14:47;6.70;;;3.47;;
57073;SDS011;69035;54.392;18.574;2023-04-25T07:17:16;8.60;;;4.40;;
57073;SDS011;69035;54.392;18.574;2023-04-25T07:19:45;9.10;;;3.22;;
57073;SDS011;69035;54.392;18.574;2023-04-25T07:22:14;10.70;;;3.58;;
57073;SDS011;69035;54.392;18.574;2023-04-25T07:24:42;7.43;;;3.22;;
57073;SDS011;69035;54.392;18.574;2023-04-25T07:27:19;6.38;;;3.40;;
57073;SDS011;69035;54.392;18.574;2023-04-25T07:30:05;7.45;;;3.47;;
57073;SDS011;69035;54.392;18.574;2023-04-25T07:32:38;6.25;;;3.15;;
57073;SDS011;69035;54.392;18.574;2023-04-25T07:35:07;6.57;;;3.33;;
57073;SDS011;69035;54.392;18.574;2023-04-25T07:37:37;6.97;;;3.25;;
57073;SDS011;69035;54.392;18.574;2023-04-25T07:40:12;9.13;;;4.13;;
57073;SDS011;69035;54.392;18.574;2023-04-25T07:42:51;6.95;;;3.30;;
57073;SDS011;69035;54.392;18.574;2023-04-25T07:45:35;7.75;;;2.97;;
57073;SDS011;69035;54.392;18.574;2023-04-25T07:48:04;6.70;;;2.85;;
57073;SDS011;69035;54.392;18.574;2023-04-25T07:50:36;7.07;;;2.90;;
57073;SDS011;69035;54.392;18.574;2023-04-25T07:53:05;5.45;;;2.40;;
57073;SDS011;69035;54.392;18.574;2023-04-25T07:55:41;6.60;;;2.50;;
57073;SDS011;69035;54.392;18.574;2023-04-25T07:58:17;4.55;;;2.20;;
57073;SDS011;69035;54.392;18.574;2023-04-25T08:00:52;5.57;;;2.28;;
57073;SDS011;69035;54.392;18.574;2023-04-25T08:03:45;6.13;;;2.50;;
57073;SDS011;69035;54.392;18.574;2023-04-25T08:22:44;5.95;;;2.30;;
57073;SDS011;69035;54.392;18.574;2023-04-25T08:25:51;6.00;;;1.87;;
57073;SDS011;69035;54.392;18.574;2023-04-25T08:28:24;6.97;;;2.08;;
57073;SDS011;69035;54.392;18.574;2023-04-25T08:30:54;5.13;;;2.13;;
57073;SDS011;69035;54.392;18.574;2023-04-25T08:33:25;4.15;;;1.80;;
57073;SDS011;69035;54.392;18.574;2023-04-25T08:36:17;4.60;;;1.90;;
57073;SDS011;69035;54.392;18.574;2023-04-25T08:39:05;3.38;;;1.73;;
57073;SDS011;69035;54.392;18.574;2023-04-25T08:41:43;3.70;;;1.85;;
57073;SDS011;69035;54.392;18.574;2023-04-25T08:44:12;3.90;;;1.90;;
57073;SDS011;69035;54.392;18.574;2023-04-25T08:46:43;3.70;;;1.73;;
57073;SDS011;69035;54.392;18.574;2023-04-25T08:49:30;5.35;;;1.83;;
57073;SDS011;69035;54.392;18.574;2023-04-25T08:52:00;4.60;;;2.20;;
57073;SDS011;69035;54.392;18.574;2023-04-25T08:54:36;4.18;;;1.83;;
57073;SDS011;69035;54.392;18.574;2023-04-25T08:57:08;5.47;;;2.08;;
57073;SDS011;69035;54.392;18.574;2023-04-25T08:59:37;5.00;;;2.20;;
57073;SDS011;69035;54.392;18.574;2023-04-25T09:02:10;6.05;;;2.40;;
57073;SDS011;69035;54.392;18.574;2023-04-25T09:04:42;5.18;;;2.20;;
57073;SDS011;69035;54.392;18.574;2023-04-25T09:07:12;5.47;;;2.80;;
57073;SDS011;69035;54.392;18.574;2023-04-25T09:09:46;5.47;;;2.00;;
57073;SDS011;69035;54.392;18.574;2023-04-25T09:12:21;4.57;;;2.00;;
57073;SDS011;69035;54.392;18.574;2023-04-25T09:15:03;4.07;;;2.10;;
57073;SDS011;69035;54.392;18.574;2023-04-25T09:17:54;5.90;;;2.58;;
57073;SDS011;69035;54.392;18.574;2023-04-25T09:20:28;8.27;;;3.20;;
57073;SDS011;69035;54.392;18.574;2023-04-25T09:23:02;7.47;;;2.97;;
57073;SDS011;69035;54.392;18.574;2023-04-25T09:25:35;6.28;;;2.53;;
57073;SDS011;69035;54.392;18.574;2023-04-25T09:28:08;6.38;;;2.47;;
57073;SDS011;69035;54.392;18.574;2023-04-25T09:30:37;5.35;;;2.35;;
57073;SDS011;69035;54.392;18.574;2023-04-25T09:33:12;4.88;;;2.20;;
57073;SDS011;69035;54.392;18.574;2023-04-25T09:35:46;5.35;;;2.38;;
57073;SDS011;69035;54.392;18.574;2023-04-25T09:38:29;4.45;;;2.10;;
57073;SDS011;69035;54.392;18.574;2023-04-25T09:41:09;4.78;;;2.17;;
57073;SDS011;69035;54.392;18.574;2023-04-25T09:43:44;4.55;;;2.03;;
57073;SDS011;69035;54.392;18.574;2023-04-25T09:46:14;4.90;;;2.25;;
57073;SDS011;69035;54.392;18.574;2023-04-25T09:48:49;5.20;;;2.08;;
57073;SDS011;69035;54.392;18.574;2023-04-25T09:51:31;5.38;;;2.13;;
57073;SDS011;69035;54.392;18.574;2023-04-25T09:54:01;4.95;;;2.00;;
57073;SDS011;69035;54.392;18.574;2023-04-25T09:56:41;7.05;;;2.83;;
57073;SDS011;69035;54.392;18.574;2023-04-25T09:59:11;6.00;;;2.33;;
57073;SDS011;69035;54.392;18.574;2023-04-25T10:01:40;5.63;;;2.10;;
57073;SDS011;69035;54.392;18.574;2023-04-25T10:04:19;4.65;;;2.15;;
57073;SDS011;69035;54.392;18.574;2023-04-25T10:41:47;6.97;;;2.20;;
57073;SDS011;69035;54.392;18.574;2023-04-25T10:44:20;5.72;;;2.35;;
57073;SDS011;69035;54.392;18.574;2023-04-25T10:46:49;5.47;;;2.42;;
57073;SDS011;69035;54.392;18.574;2023-04-25T10:49:31;6.03;;;2.60;;
57073;SDS011;69035;54.392;18.574;2023-04-25T10:52:16;8.02;;;2.50;;
57073;SDS011;69035;54.392;18.574;2023-04-25T10:54:47;6.38;;;2.70;;
57073;SDS011;69035;54.392;18.574;2023-04-25T11:00:09;3.72;;;1.80;;
57073;SDS011;69035;54.392;18.574;2023-04-25T11:02:40;4.75;;;2.20;;
57073;SDS011;69035;54.392;18.574;2023-04-25T11:05:20;4.80;;;2.10;;
57073;SDS011;69035;54.392;18.574;2023-04-25T11:07:51;6.05;;;2.50;;
57073;SDS011;69035;54.392;18.574;2023-04-25T11:10:27;4.53;;;2.17;;
57073;SDS011;69035;54.392;18.574;2023-04-25T11:12:56;6.35;;;2.72;;
57073;SDS011;69035;54.392;18.574;2023-04-25T11:15:28;5.30;;;2.20;;
57073;SDS011;69035;54.392;18.574;2023-04-25T11:17:56;5.07;;;2.58;;
57073;SDS011;69035;54.392;18.574;2023-04-25T11:20:26;6.35;;;2.60;;
57073;SDS011;69035;54.392;18.574;2023-04-25T11:22:57;5.78;;;2.30;;
57073;SDS011;69035;54.392;18.574;2023-04-25T11:25:27;5.50;;;2.50;;
57073;SDS011;69035;54.392;18.574;2023-04-25T11:27:57;6.10;;;3.00;;
57073;SDS011;69035;54.392;18.574;2023-04-25T11:30:29;7.18;;;3.00;;
57073;SDS011;69035;54.392;18.574;2023-04-25T11:32:58;5.80;;;2.95;;
57073;SDS011;69035;54.392;18.574;2023-04-25T11:35:27;6.73;;;2.87;;
57073;SDS011;69035;54.392;18.574;2023-04-25T11:37:56;6.78;;;2.95;;
57073;SDS011;69035;54.392;18.574;2023-04-25T11:40:25;5.85;;;2.42;;
57073;SDS011;69035;54.392;18.574;2023-04-25T11:42:53;6.72;;;3.00;;
57073;SDS011;69035;54.392;18.574;2023-04-25T11:45:22;7.40;;;2.83;;
57073;SDS011;69035;54.392;18.574;2023-04-25T11:47:53;5.28;;;2.60;;
57073;SDS011;69035;54.392;18.574;2023-04-25T11:50:22;5.72;;;2.72;;
57073;SDS011;69035;54.392;18.574;2023-04-25T11:52:51;5.82;;;2.70;;
57073;SDS011;69035;54.392;18.574;2023-04-25T11:55:25;5.65;;;2.72;;
57073;SDS011;69035;54.392;18.574;2023-04-25T11:57:53;4.63;;;2.38;;
57073;SDS011;69035;54.392;18.574;2023-04-25T12:00:22;6.88;;;2.30;;
57073;SDS011;69035;54.392;18.574;2023-04-25T12:05:23;7.32;;;3.10;;
57073;SDS011;69035;54.392;18.574;2023-04-25T12:08:11;8.48;;;2.88;;
57073;SDS011;69035;54.392;18.574;2023-04-25T12:10:42;6.45;;;2.60;;
57073;SDS011;69035;54.392;18.574;2023-04-25T12:13:18;7.80;;;2.63;;
57073;SDS011;69035;54.392;18.574;2023-04-25T12:15:48;5.60;;;2.47;;
57073;SDS011;69035;54.392;18.574;2023-04-25T12:18:20;6.43;;;2.72;;
57073;SDS011;69035;54.392;18.574;2023-04-25T12:20:50;6.78;;;2.30;;
57073;SDS011;69035;54.392;18.574;2023-04-25T12:23:24;7.82;;;2.88;;
57073;SDS011;69035;54.392;18.574;2023-04-25T12:25:55;7.03;;;2.58;;
57073;SDS011;69035;54.392;18.574;2023-04-25T12:28:24;5.05;;;2.40;;
57073;SDS011;69035;54.392;18.574;2023-04-25T12:30:56;6.30;;;2.72;;
57073;SDS011;69035;54.392;18.574;2023-04-25T12:33:28;5.50;;;2.38;;
57073;SDS011;69035;54.392;18.574;2023-04-25T12:35:58;8.43;;;3.22;;
57073;SDS011;69035;54.392;18.574;2023-04-25T12:38:34;6.57;;;3.83;;
57073;SDS011;69035;54.392;18.574;2023-04-25T12:41:06;6.25;;;3.50;;
57073;SDS011;69035;54.392;18.574;2023-04-25T12:43:34;6.68;;;3.13;;
57073;SDS011;69035;54.392;18.574;2023-04-25T12:46:04;7.43;;;3.45;;
57073;SDS011;69035;54.392;18.574;2023-04-25T12:48:35;8.02;;;3.63;;
57073;SDS011;69035;54.392;18.574;2023-04-25T12:51:05;6.88;;;3.70;;
57073;SDS011;69035;54.392;18.574;2023-04-25T12:53:33;10.02;;;3.80;;
57073;SDS011;69035;54.392;18.574;2023-04-25T12:56:04;7.75;;;3.42;;
57073;SDS011;69035;54.392;18.574;2023-04-25T12:58:33;11.30;;;3.63;;
57073;SDS011;69035;54.392;18.574;2023-04-25T13:01:03;10.88;;;4.47;;
57073;SDS011;69035;54.392;18.574;2023-04-25T13:03:32;9.93;;;3.67;;
57073;SDS011;69035;54.392;18.574;2023-04-25T13:06:03;7.00;;;3.05;;
57073;SDS011;69035;54.392;18.574;2023-04-25T13:08:32;8.68;;;3.72;;
57073;SDS011;69035;54.392;18.574;2023-04-25T13:11:02;11.25;;;4.05;;
57073;SDS011;69035;54.392;18.574;2023-04-25T13:13:31;10.10;;;3.72;;
57073;SDS011;69035;54.392;18.574;2023-04-25T13:16:01;8.50;;;4.32;;
57073;SDS011;69035;54.392;18.574;2023-04-25T13:18:30;8.77;;;3.97;;
57073;SDS011;69035;54.392;18.574;2023-04-25T13:21:00;8.27;;;3.80;;
57073;SDS011;69035;54.392;18.574;2023-04-25T13:23:30;9.00;;;4.00;;
57073;SDS011;69035;54.392;18.574;2023-04-25T13:25:59;6.82;;;3.60;;
57073;SDS011;69035;54.392;18.574;2023-04-25T13:28:28;7.97;;;4.13;;
57073;SDS011;69035;54.392;18.574;2023-04-25T13:30:57;9.55;;;4.43;;
57073;SDS011;69035;54.392;18.574;2023-04-25T13:33:26;9.37;;;3.70;;
57073;SDS011;69035;54.392;18.574;2023-04-25T13:35:55;8.13;;;3.90;;
57073;SDS011;69035;54.392;18.574;2023-04-25T13:38:24;9.32;;;3.92;;
57073;SDS011;69035;54.392;18.574;2023-04-25T13:40:54;9.40;;;4.35;;
57073;SDS011;69035;54.392;18.574;2023-04-25T13:43:23;9.25;;;4.20;;
57073;SDS011;69035;54.392;18.574;2023-04-25T13:45:52;12.80;;;5.78;;
57073;SDS011;69035;54.392;18.574;2023-04-25T13:48:21;11.27;;;5.47;;
57073;SDS011;69035;54.392;18.574;2023-04-25T13:50:50;10.60;;;5.03;;
57073;SDS011;69035;54.392;18.574;2023-04-25T13:53:20;9.57;;;5.10;;
57073;SDS011;69035;54.392;18.574;2023-04-25T13:55:48;10.75;;;4.93;;
57073;SDS011;69035;54.392;18.574;2023-04-25T13:58:19;10.07;;;5.05;;
57073;SDS011;69035;54.392;18.574;2023-04-25T14:00:48;10.18;;;5.68;;
57073;SDS011;69035;54.392;18.574;2023-04-25T14:03:17;12.23;;;5.40;;
57073;SDS011;69035;54.392;18.574;2023-04-25T14:05:47;10.90;;;5.57;;
57073;SDS011;69035;54.392;18.574;2023-04-25T14:13:14;13.38;;;5.28;;
57073;SDS011;69035;54.392;18.574;2023-04-25T14:15:44;9.33;;;5.53;;
57073;SDS011;69035;54.392;18.574;2023-04-25T14:18:13;10.32;;;5.90;;
57073;SDS011;69035;54.392;18.574;2023-04-25T14:20:42;13.45;;;6.75;;
57073;SDS011;69035;54.392;18.574;2023-04-25T14:23:11;11.75;;;5.85;;
57073;SDS011;69035;54.392;18.574;2023-04-25T14:25:40;10.82;;;5.68;;
57073;SDS011;69035;54.392;18.574;2023-04-25T14:28:10;9.25;;;4.40;;
57073;SDS011;69035;54.392;18.574;2023-04-25T14:30:39;7.38;;;3.20;;
57073;SDS011;69035;54.392;18.574;2023-04-25T14:33:09;10.85;;;3.38;;
57073;SDS011;69035;54.392;18.574;2023-04-25T14:35:39;7.75;;;3.25;;
57073;SDS011;69035;54.392;18.574;2023-04-25T14:38:08;10.65;;;3.20;;
57073;SDS011;69035;54.392;18.574;2023-04-25T14:40:37;8.48;;;3.70;;
57073;SDS011;69035;54.392;18.574;2023-04-25T14:43:06;13.87;;;3.53;;
57073;SDS011;69035;54.392;18.574;2023-04-25T14:45:35;8.13;;;2.95;;
57073;SDS011;69035;54.392;18.574;2023-04-25T14:48:04;13.23;;;4.20;;
57073;SDS011;69035;54.392;18.574;2023-04-25T14:50:35;10.52;;;3.50;;
57073;SDS011;69035;54.392;18.574;2023-04-25T14:53:04;11.13;;;3.78;;
57073;SDS011;69035;54.392;18.574;2023-04-25T14:55:33;9.95;;;3.20;;
57073;SDS011;69035;54.392;18.574;2023-04-25T14:58:01;12.05;;;3.40;;
57073;SDS011;69035;54.392;18.574;2023-04-25T15:00:31;12.88;;;3.40;;
57073;SDS011;69035;54.392;18.574;2023-04-25T15:02:59;11.20;;;3.80;;
57073;SDS011;69035;54.392;18.574;2023-04-25T15:07:59;12.57;;;3.60;;
57073;SDS011;69035;54.392;18.574;2023-04-25T15:10:28;11.73;;;3.75;;
57073;SDS011;69035;54.392;18.574;2023-04-25T15:12:58;11.60;;;3.72;;
57073;SDS011;69035;54.392;18.574;2023-04-25T15:15:27;11.18;;;4.13;;
57073;SDS011;69035;54.392;18.574;2023-04-25T15:17:56;11.48;;;3.58;;
57073;SDS011;69035;54.392;18.574;2023-04-25T15:22:54;11.48;;;3.22;;
57073;SDS011;69035;54.392;18.574;2023-04-25T15:25:25;9.00;;;3.45;;
57073;SDS011;69035;54.392;18.574;2023-04-25T15:27:56;12.05;;;3.17;;
57073;SDS011;69035;54.392;18.574;2023-04-25T15:30:25;11.98;;;3.85;;
57073;SDS011;69035;54.392;18.574;2023-04-25T15:32:54;10.70;;;3.33;;
57073;SDS011;69035;54.392;18.574;2023-04-25T15:35:23;11.13;;;4.03;;
57073;SDS011;69035;54.392;18.574;2023-04-25T15:37:52;11.30;;;3.45;;
57073;SDS011;69035;54.392;18.574;2023-04-25T15:40:20;10.43;;;3.45;;
57073;SDS011;69035;54.392;18.574;2023-04-25T15:42:51;11.93;;;3.58;;
57073;SDS011;69035;54.392;18.574;2023-04-25T15:45:21;13.52;;;3.92;;
57073;SDS011;69035;54.392;18.574;2023-04-25T15:47:52;10.68;;;3.83;;
57073;SDS011;69035;54.392;18.574;2023-04-25T15:50:23;11.40;;;3.70;;
57073;SDS011;69035;54.392;18.574;2023-04-25T15:52:53;10.10;;;3.67;;
57073;SDS011;69035;54.392;18.574;2023-04-25T15:55:24;12.98;;;3.58;;
57073;SDS011;69035;54.392;18.574;2023-04-25T15:57:54;11.25;;;4.05;;
57073;SDS011;69035;54.392;18.574;2023-04-25T16:00:24;13.07;;;3.70;;
57073;SDS011;69035;54.392;18.574;2023-04-25T16:02:52;11.20;;;3.97;;
57073;SDS011;69035;54.392;18.574;2023-04-25T16:05:22;16.35;;;4.57;;
57073;SDS011;69035;54.392;18.574;2023-04-25T16:07:50;10.32;;;3.33;;
57073;SDS011;69035;54.392;18.574;2023-04-25T16:10:21;13.48;;;3.55;;
57073;SDS011;69035;54.392;18.574;2023-04-25T16:12:49;11.93;;;3.22;;
57073;SDS011;69035;54.392;18.574;2023-04-25T16:15:20;11.13;;;3.00;;